Flight Number: EUR1377 Duration: 2:00
Departure: Vágar Airport (EKVG) at 21:15 Distance: 696 Nm
Arrival: Gatwick Airport (EGKK) at 23:15 Equipment: CRJ700

Weather Information
Soervaag / Vagar, Denmark (EKVG) 62-04N 007-17W 92M May 22, 2018 - 02:50 PM EDT / 2018.05.22 1850 UTC
Wind: from the SSE (160 degrees) at 13 MPH (11 KT):0
Sky conditions: mostly clear Temperature: 46 F (8 C) Dew Point: 41 F (5 C) Relative Humidity: 81% Pressure (altimeter): 30.33 in. Hg (1027 hPa)
ob: EKVG 221850Z AUTO 16011KT 9999NDV FEW170/// 08/05 Q1027 cycle: 19
Sunrise: 03:22 Sunset: 21:28 (UTC)

London / Gatwick Airport, United Kingdom (EGKK) 51-09N 000-11W 0M May 22, 2018 - 02:50 PM EDT / 2018.05.22 1850 UTC
Wind: from the N (010 degrees) at 14 MPH (12 KT):0
Visibility: greater than 7 mile(s):0 Temperature: 66 F (19 C) Dew Point: 51 F (11 C) Relative Humidity: 59% Pressure (altimeter): 30.03 in. Hg (1017 hPa)
ob: EGKK 221850Z 01012KT CAVOK 19/11 Q1017 cycle: 19
Sunrise: 04:04 Sunset: 19:50 (UTC)

TAF:2018/05/22 18:15 TAF EGKK 221701Z 2218/2324 01012KT 9999 FEW045 PROB30 TEMPO 2301/2308 8000 BKN009 PROB30 TEMPO 2316/2324 6000 SHRA

This route has never been flown.

Route map